This is the latest recevied weather packets stored in our database for station/object KC3ROS. If no packets are shown the sender has not sent any weather packets the latest 1 day(s).
| Time | Temp. | Humidity | Pressure | Rain* | Wind** | Luminosity | Snow |
|---|---|---|---|---|---|---|---|
| 1778005880 | 22.78° C | 52% | 1007.1 hPa | 0 mm | 1.79 m/s, 218° | 543 W/m² | - |
| 1778005576 | 21.67° C | 53% | 1007.3 hPa | 0 mm | 0.45 m/s, 224° | 804 W/m² | - |
| 1778005273 | 21.67° C | 55% | 1007.2 hPa | 0 mm | 1.34 m/s, 296° | 774 W/m² | - |
| 1778004969 | 21.67° C | 55% | 1007.3 hPa | 0 mm | 1.34 m/s, 268° | 220 W/m² | - |
| 1778004667 | 22.22° C | 54% | 1007.2 hPa | 0 mm | 1.79 m/s, 295° | 787 W/m² | - |
| 1778004363 | 21.67° C | 53% | 1007.6 hPa | 0 mm | 1.34 m/s, 198° | 777 W/m² | - |
| 1778004060 | 21.11° C | 56% | 1007.4 hPa | 0 mm | 1.34 m/s, 272° | 652 W/m² | - |
| 1778003756 | 21.11° C | 57% | 1007.5 hPa | 0 mm | 0.89 m/s, 281° | 691 W/m² | - |
| 1778003453 | 20.56° C | 54% | 1007.6 hPa | 0 mm | 2.68 m/s, 259° | 669 W/m² | - |
| 1778003150 | 20° C | 56% | 1007.5 hPa | 0 mm | 3.13 m/s, 194° | 353 W/m² | - |
| 1778002845 | 20° C | 59% | 1007.5 hPa | 0 mm | 0.89 m/s, 307° | 160 W/m² | - |
| 1778002542 | 20° C | 57% | 1007.3 hPa | 0 mm | 3.58 m/s, 238° | 151 W/m² | - |
| 1778002239 | 20° C | 58% | 1007.5 hPa | 0 mm | 6.26 m/s, 223° | 115 W/m² | - |
| 1778001937 | 20.56° C | 59% | 1007.3 hPa | 0 mm | 3.13 m/s, 229° | 120 W/m² | - |
| 1778001633 | 20.56° C | 58% | 1007.3 hPa | 0 mm | 1.34 m/s, 209° | 169 W/m² | - |
| 1778001328 | 21.11° C | 57% | 1007 hPa | 0 mm | 0.89 m/s, 148° | 190 W/m² | - |
| 1778001025 | 21.11° C | 56% | 1006.8 hPa | 0 mm | 1.34 m/s, 219° | 289 W/m² | - |
| 1778000722 | 21.67° C | 56% | 1006.7 hPa | 0 mm | 1.79 m/s, 188° | 251 W/m² | - |
| 1778000418 | 21.67° C | 54% | 1006.8 hPa | 0 mm | 1.79 m/s, 245° | 319 W/m² | - |
| 1778000114 | 21.67° C | 53% | 1006.7 hPa | 0 mm | 1.34 m/s, 183° | 251 W/m² | - |
| 1777999809 | 22.22° C | 53% | 1006.6 hPa | 0 mm | 3.13 m/s, 205° | 266 W/m² | - |
| 1777999500 | 22.22° C | 53% | 1006.7 hPa | 0 mm | 2.68 m/s, 253° | 195 W/m² | - |
| 1777999198 | 22.22° C | 55% | 1006.7 hPa | 0 mm | 1.34 m/s, 229° | 236 W/m² | - |
| 1777998897 | 22.78° C | 56% | 1006.7 hPa | 0 mm | 1.79 m/s, 253° | 232 W/m² | - |
| 1777998596 | 22.22° C | 55% | 1006.8 hPa | 0 mm | 2.24 m/s, 221° | 197 W/m² | - |
* Rain latest hour (hover to see other rain measurements)
** Current wind speed in m/s (hover to see current wind gust speed)